Time;durP1;ratioP1;P1;durP2;ratioP2;P2;SDS_P1;SDS_P2;PMS_P1;PMS_P2;Temp;Humidity;BMP_temperature;BMP_pressure;BME280_temperature;BME280_humidity;BME280_pressure;Samples;Min_cycle;Max_cycle;Signal;HPM_P1;HPM_P2
2023/08/14 00:02:22;;;;;;;18.70;7.50;;;;;;;19.21;56.27;101054.53;127176;1103;101955;-77
2023/08/14 00:04:53;;;;;;;21.30;7.30;;;;;;;19.14;55.93;101055.34;127328;1102;102376;-77
2023/08/14 00:07:24;;;;;;;16.83;7.50;;;;;;;19.10;56.28;101065.94;127350;1101;101233;-77
2023/08/14 00:09:56;;;;;;;17.37;7.40;;;;;;;19.02;56.64;101065.86;127389;1102;101266;-77
2023/08/14 00:12:27;;;;;;;19.50;7.27;;;;;;;18.95;56.70;101064.03;127316;1101;101133;-76
2023/08/14 00:14:58;;;;;;;19.23;7.80;;;;;;;18.89;57.31;101062.19;127338;1101;101974;-77
2023/08/14 00:17:30;;;;;;;25.13;8.43;;;;;;;18.84;57.39;101061.22;127349;1101;101417;-77
2023/08/14 00:20:02;;;;;;;17.60;7.90;;;;;;;18.80;57.63;101056.73;127305;1102;101585;-77
2023/08/14 00:22:33;;;;;;;19.47;8.30;;;;;;;18.73;56.87;101062.84;127424;1101;101666;-77
2023/08/14 00:25:05;;;;;;;19.37;7.80;;;;;;;18.69;57.71;101064.59;126350;1102;101209;-77
2023/08/14 00:27:37;;;;;;;23.27;8.57;;;;;;;18.66;58.24;101064.56;127408;1102;117878;-77
2023/08/14 00:30:09;;;;;;;16.90;7.67;;;;;;;18.68;57.85;101061.05;127334;1101;101324;-77
2023/08/14 00:32:40;;;;;;;18.17;7.93;;;;;;;18.66;57.90;101062.78;127384;1101;101326;-77
2023/08/14 00:35:12;;;;;;;19.90;8.80;;;;;;;18.62;58.24;101055.66;127265;1102;101173;-77
2023/08/14 00:37:44;;;;;;;20.17;8.30;;;;;;;18.57;58.32;101067.98;127245;1101;101125;-77
2023/08/14 00:40:17;;;;;;;21.97;8.37;;;;;;;18.52;58.26;101068.83;127404;1101;101991;-77
2023/08/14 00:42:49;;;;;;;20.10;8.10;;;;;;;18.44;58.09;101068.73;127325;1101;101767;-77
2023/08/14 00:45:20;;;;;;;21.93;8.13;;;;;;;18.38;58.75;101064.22;127365;1101;101216;-77
2023/08/14 00:47:51;;;;;;;20.50;8.10;;;;;;;18.36;59.21;101057.13;126289;1102;101464;-77
2023/08/14 00:50:24;;;;;;;21.93;7.90;;;;;;;18.33;59.22;101061.50;127426;1101;101143;-77
2023/08/14 00:52:58;;;;;;;18.43;7.40;;;;;;;18.28;59.28;101057.91;126310;1102;101918;-77
2023/08/14 00:55:30;;;;;;;18.83;7.40;;;;;;;18.23;59.38;101059.63;127355;1101;101369;-78
2023/08/14 00:58:02;;;;;;;17.17;7.47;;;;;;;18.18;59.78;101061.30;126291;1104;101815;-78
2023/08/14 01:00:34;;;;;;;17.30;7.07;;;;;;;18.14;59.70;101060.37;126290;1104;101221;-78
2023/08/14 01:03:07;;;;;;;16.13;6.93;;;;;;;18.10;59.69;101058.54;126309;1105;101317;-78
2023/08/14 01:05:38;;;;;;;15.97;7.00;;;;;;;18.08;59.79;101059.41;127217;1103;101922;-78
2023/08/14 01:08:10;;;;;;;17.23;7.53;;;;;;;18.02;60.08;101060.20;126258;1102;101846;-78
2023/08/14 01:10:53;;;;;;;16.30;6.97;;;;;;;17.96;60.00;101061.00;127189;1102;101767;-78
2023/08/14 01:13:33;;;;;;;18.90;7.63;;;;;;;17.90;61.27;101062.69;127363;1101;101707;-78
2023/08/14 01:16:09;;;;;;;18.33;8.00;;;;;;;17.85;60.65;101067.01;126362;1102;101205;-77
2023/08/14 01:18:44;;;;;;;20.87;8.07;;;;;;;17.80;61.57;101064.28;127240;1101;118596;-78
2023/08/14 01:21:36;;;;;;;18.33;7.60;;;;;;;17.76;61.51;101062.44;127343;1101;101597;-78
2023/08/14 01:24:22;;;;;;;21.77;7.63;;;;;;;17.71;61.22;101066.80;127388;1101;101398;-79
2023/08/14 01:26:54;;;;;;;21.27;8.57;;;;;;;17.67;61.40;101071.17;127299;1101;101679;-78
2023/08/14 01:29:26;;;;;;;18.80;8.33;;;;;;;17.67;62.19;101072.91;127390;1101;101123;-79
2023/08/14 01:31:57;;;;;;;20.57;9.40;;;;;;;17.65;62.30;101075.54;127275;1101;101926;-79
2023/08/14 01:34:28;;;;;;;21.53;9.10;;;;;;;17.61;62.10;101076.38;127310;1101;101872;-78
2023/08/14 01:37:07;;;;;;;16.87;8.40;;;;;;;17.60;62.44;101078.13;127422;1101;101744;-79
2023/08/14 01:39:47;;;;;;;18.07;7.80;;;;;;;17.58;62.57;101077.22;127168;1103;101413;-78
2023/08/14 01:42:23;;;;;;;19.77;8.10;;;;;;;17.55;62.56;101069.20;127186;1103;101234;-79
2023/08/14 01:45:03;;;;;;;21.20;8.70;;;;;;;17.58;62.43;101071.02;127189;1101;102361;-78
2023/08/14 01:47:36;;;;;;;18.03;7.83;;;;;;;17.58;62.77;101066.60;127001;1102;101482;-76
2023/08/14 01:50:09;;;;;;;18.27;8.10;;;;;;;17.54;63.02;101075.37;127413;1101;101192;-76
2023/08/14 01:52:39;;;;;;;;;;;;;;;17.49;63.99;101063.80;126498;1102;101811;-76
2023/08/14 01:55:11;;;;;;;19.67;7.67;;;;;;;17.47;63.06;101070.84;127323;1101;101625;-76
2023/08/14 01:57:42;;;;;;;22.23;8.27;;;;;;;17.46;63.88;101065.52;126286;1102;102012;-77
2023/08/14 02:00:15;;;;;;;17.07;8.17;;;;;;;17.41;63.76;101070.75;126298;1104;101333;-77
2023/08/14 02:02:49;;;;;;;18.53;7.97;;;;;;;17.37;63.74;101071.55;127162;1103;101610;-77
2023/08/14 02:05:20;;;;;;;20.30;8.17;;;;;;;17.36;63.80;101080.40;127122;1102;101218;-77
2023/08/14 02:07:52;;;;;;;19.40;8.20;;;;;;;17.35;63.99;101086.56;127045;1103;102052;-78
2023/08/14 02:10:25;;;;;;;16.50;8.05;;;;;;;17.35;64.11;101083.91;127399;1101;101996;-79
2023/08/14 02:12:57;;;;;;;16.83;8.37;;;;;;;17.33;64.21;101075.92;126302;1102;101532;-79
2023/08/14 02:15:29;;;;;;;17.07;8.40;;;;;;;17.29;64.51;101075.84;126274;1102;101729;-78
2023/08/14 02:18:00;;;;;;;19.27;8.43;;;;;;;17.25;64.74;101073.13;126208;1105;101542;-78
2023/08/14 02:20:31;;;;;;;16.03;7.33;;;;;;;17.23;64.53;101073.96;127212;1103;101311;-77
2023/08/14 02:23:03;;;;;;;17.97;8.17;;;;;;;17.20;64.76;101079.21;127139;1103;101963;-78
2023/08/14 02:25:39;;;;;;;17.87;8.10;;;;;;;17.18;65.06;101076.53;127088;1104;101728;-77
2023/08/14 02:28:11;;;;;;;18.13;7.87;;;;;;;17.18;65.21;101079.19;127049;1104;101363;-78
2023/08/14 02:30:42;;;;;;;17.07;7.20;;;;;;;17.17;65.13;101079.16;126302;1102;101688;-78
2023/08/14 02:33:14;;;;;;;16.40;7.30;;;;;;;17.14;64.33;101074.72;127302;1101;101286;-79
2023/08/14 02:35:46;;;;;;;17.47;7.27;;;;;;;17.15;64.95;101079.12;127346;1101;101939;-78
2023/08/14 02:38:20;;;;;;;17.63;7.83;;;;;;;17.09;65.12;101086.97;126971;1101;101427;-79
2023/08/14 02:40:51;;;;;;;19.57;7.53;;;;;;;17.05;65.05;101085.15;126689;1101;101223;-79
2023/08/14 02:43:23;;;;;;;15.80;7.77;;;;;;;17.01;64.54;101086.83;126777;1102;101382;-78
2023/08/14 02:45:54;;;;;;;15.10;7.50;;;;;;;16.98;64.71;101094.72;126816;1102;101349;-79
2023/08/14 02:48:26;;;;;;;17.10;7.67;;;;;;;16.93;65.13;101092.87;126698;1101;101923;-78
2023/08/14 02:51:00;;;;;;;18.27;7.73;;;;;;;16.88;65.37;101104.27;126872;1102;102353;-78
2023/08/14 02:53:31;;;;;;;18.03;8.63;;;;;;;16.83;64.91;101102.38;127188;1101;101581;-79
2023/08/14 02:56:03;;;;;;;18.15;8.35;;;;;;;16.81;65.86;101106.73;126317;1102;101353;-79
2023/08/14 02:58:35;;;;;;;38.87;10.83;;;;;;;16.76;65.39;101101.34;126787;1102;101206;-78
2023/08/14 03:01:07;;;;;;;19.53;7.97;;;;;;;16.75;65.32;101102.22;126287;1103;101995;-78
2023/08/14 03:03:38;;;;;;;17.00;7.80;;;;;;;16.73;65.62;101098.63;127154;1103;102245;-78
2023/08/14 03:06:09;;;;;;;18.27;7.43;;;;;;;16.73;66.22;101100.39;126306;1104;101150;-78
2023/08/14 03:08:41;;;;;;;18.87;7.47;;;;;;;16.70;66.33;101094.18;126273;1105;102481;-79
2023/08/14 03:11:12;;;;;;;23.17;8.67;;;;;;;16.70;65.54;101102.13;126328;1102;101259;-78
2023/08/14 03:13:43;;;;;;;21.80;8.13;;;;;;;16.70;66.43;101104.78;127315;1101;102078;-79
2023/08/14 03:16:15;;;;;;;15.97;7.27;;;;;;;16.74;65.64;101102.19;127237;1102;101475;-78
2023/08/14 03:18:46;;;;;;;18.50;7.67;;;;;;;16.76;65.67;101108.41;126281;1102;102540;-77
2023/08/14 03:21:17;;;;;;;12.80;7.30;;;;;;;16.75;66.17;101098.66;127273;1101;110868;-78
2023/08/14 03:23:50;;;;;;;15.23;7.70;;;;;;;16.74;66.19;101105.72;127002;1103;101336;-78
2023/08/14 03:26:21;;;;;;;18.93;8.70;;;;;;;16.73;66.80;101108.34;127276;1102;102202;-77
2023/08/14 03:28:52;;;;;;;20.33;8.47;;;;;;;16.64;66.46;101101.09;126299;1102;101361;-78
2023/08/14 03:31:24;;;;;;;19.30;8.03;;;;;;;16.69;66.22;101107.40;127255;1101;101341;-78
2023/08/14 03:33:55;;;;;;;15.37;7.43;;;;;;;16.70;66.51;101110.08;127369;1101;101338;-79
2023/08/14 03:36:26;;;;;;;18.67;7.40;;;;;;;16.73;66.51;101111.87;127405;1101;101146;-79
2023/08/14 03:38:58;;;;;;;23.20;8.60;;;;;;;16.78;66.52;101110.23;126321;1101;102008;-78
2023/08/14 03:41:30;;;;;;;16.87;7.90;;;;;;;16.81;66.60;101112.95;126272;1103;107943;-79
2023/08/14 03:44:02;;;;;;;19.83;8.03;;;;;;;16.84;67.04;101109.44;126343;1102;101342;-79
2023/08/14 03:46:34;;;;;;;18.30;8.33;;;;;;;16.87;67.09;101109.53;126348;1102;101340;-79
2023/08/14 03:49:07;;;;;;;18.57;7.70;;;;;;;16.89;67.25;101108.71;127083;1102;101750;-78
2023/08/14 03:51:38;;;;;;;17.87;8.20;;;;;;;16.87;67.48;101120.14;127184;1101;102010;-79
2023/08/14 03:54:10;;;;;;;19.87;7.73;;;;;;;16.86;66.73;101108.66;127123;1103;101325;-78
2023/08/14 03:56:42;;;;;;;18.93;7.77;;;;;;;16.84;67.22;101118.31;127346;1101;101272;-79
2023/08/14 03:59:13;;;;;;;21.77;8.20;;;;;;;16.83;66.98;101115.63;126244;1103;101268;-77
2023/08/14 04:01:44;;;;;;;21.05;8.10;;;;;;;16.84;67.73;101117.39;126847;1101;101782;-78
2023/08/14 04:04:16;;;;;;;22.93;8.50;;;;;;;16.85;67.52;101114.77;126415;1102;102392;-78
2023/08/14 04:06:49;;;;;;;17.98;8.73;;;;;;;16.91;67.81;101115.78;126237;1102;101790;-77
2023/08/14 04:09:21;;;;;;;21.07;8.27;;;;;;;16.96;67.15;101106.19;126234;1103;101700;-78
2023/08/14 04:11:52;;;;;;;19.13;8.37;;;;;;;17.04;67.61;101117.81;126610;1101;103144;-80
2023/08/14 04:14:24;;;;;;;16.80;8.40;;;;;;;17.08;67.66;101117.02;126302;1102;101667;-76
2023/08/14 04:16:55;;;;;;;16.87;8.20;;;;;;;17.10;67.68;101114.40;126296;1102;101992;-78
2023/08/14 04:19:26;;;;;;;18.10;7.63;;;;;;;17.12;67.88;101117.97;126933;1101;101442;-79
2023/08/14 04:21:58;;;;;;;16.60;7.93;;;;;;;17.16;67.46;101114.52;126868;1102;101319;-79
2023/08/14 04:24:29;;;;;;;19.17;8.23;;;;;;;17.20;67.55;101117.25;127127;1103;101760;-78
2023/08/14 04:27:01;;;;;;;16.67;7.53;;;;;;;17.28;67.26;101114.74;127187;1102;101260;-78
2023/08/14 04:29:32;;;;;;;15.57;7.57;;;;;;;17.36;67.79;101123.72;126244;1105;102170;-79
2023/08/14 04:32:04;;;;;;;17.03;7.57;;;;;;;17.41;67.34;101118.50;126491;1102;102286;-77
2023/08/14 04:34:37;;;;;;;19.87;8.03;;;;;;;17.43;67.44;101120.28;126315;1102;101800;-78
2023/08/14 04:37:09;;;;;;;18.97;7.77;;;;;;;17.46;67.57;101123.88;126358;1102;101320;-78
2023/08/14 04:39:41;;;;;;;13.73;7.03;;;;;;;17.48;67.56;101123.02;126366;1102;101152;-78
2023/08/14 04:42:12;;;;;;;17.57;7.50;;;;;;;17.53;67.33;101137.28;126295;1102;101975;-77
2023/08/14 04:44:45;;;;;;;15.33;7.53;;;;;;;17.58;67.40;101134.71;127130;1103;101285;-76
2023/08/14 04:47:16;;;;;;;14.97;7.40;;;;;;;17.66;67.40;101126.88;127412;1101;101127;-79
2023/08/14 04:49:48;;;;;;;20.50;7.50;;;;;;;17.73;67.49;101123.44;126889;1101;101327;-80
2023/08/14 04:52:22;;;;;;;17.20;7.07;;;;;;;17.80;67.30;101133.30;127042;1100;108545;-77
2023/08/14 04:54:53;;;;;;;19.00;7.37;;;;;;;17.83;67.23;101136.00;126195;1102;101933;-78
2023/08/14 04:57:25;;;;;;;16.80;7.33;;;;;;;17.85;66.82;101134.25;126123;1105;101481;-77
2023/08/14 04:59:57;;;;;;;21.90;8.40;;;;;;;17.89;67.08;101136.13;126436;1102;101920;-77
2023/08/14 05:02:30;;;;;;;20.07;7.93;;;;;;;17.93;67.21;101134.41;126999;1101;101380;-78
2023/08/14 05:05:01;;;;;;;18.77;8.63;;;;;;;17.98;66.94;101138.02;126106;1102;102450;-78
2023/08/14 05:07:34;;;;;;;20.53;8.70;;;;;;;18.04;66.86;101138.12;126387;1101;102746;-80
2023/08/14 05:10:06;;;;;;;19.47;8.60;;;;;;;18.12;67.09;101143.55;126232;1102;101743;-78
2023/08/14 05:12:38;;;;;;;22.13;8.33;;;;;;;18.21;66.94;101138.37;126142;1105;102517;-82
2023/08/14 05:15:13;;;;;;;19.27;9.07;;;;;;;18.30;66.79;101141.16;125984;1102;101949;-81
2023/08/14 05:17:45;;;;;;;21.53;7.90;;;;;;;18.41;66.69;101145.75;127203;1103;101073;-78
2023/08/14 05:20:17;;;;;;;16.43;7.80;;;;;;;18.47;66.73;101146.70;126224;1105;101939;-78
2023/08/14 05:22:48;;;;;;;21.80;8.60;;;;;;;18.55;66.46;101154.79;126324;1102;101266;-78
2023/08/14 05:25:20;;;;;;;15.50;8.33;;;;;;;18.65;66.18;101153.13;127471;1101;101131;-78
2023/08/14 05:27:51;;;;;;;17.60;7.83;;;;;;;18.72;65.81;101156.79;127408;1101;101632;-82
2023/08/14 05:30:26;;;;;;;17.57;7.57;;;;;;;18.79;66.43;101154.23;127443;1101;101054;-79
2023/08/14 05:32:58;;;;;;;21.27;7.60;;;;;;;18.87;65.74;101162.33;126257;1102;102310;-78
2023/08/14 05:35:31;;;;;;;20.30;7.77;;;;;;;18.99;65.50;101157.12;126270;1103;101766;-78
2023/08/14 05:38:04;;;;;;;20.23;7.63;;;;;;;19.12;65.83;101154.61;127341;1101;101128;-82
2023/08/14 05:40:35;;;;;;;19.75;7.55;;;;;;;19.24;65.41;101148.54;126295;1102;101647;-81
2023/08/14 05:43:09;;;;;;;20.37;7.70;;;;;;;19.37;65.41;101150.46;127029;1103;101314;-80
2023/08/14 05:45:42;;;;;;;21.75;7.40;;;;;;;19.47;65.25;101152.31;126336;1104;102274;-82
2023/08/14 05:48:22;;;;;;;17.57;7.00;;;;;;;19.56;65.20;101146.20;127277;1103;101470;-84
2023/08/14 05:50:55;;;;;;;17.53;6.97;;;;;;;19.67;64.58;101156.94;126310;1105;101579;-76
2023/08/14 05:53:28;;;;;;;15.08;7.05;;;;;;;19.76;65.22;101151.70;126352;1102;101440;-78
2023/08/14 05:56:01;;;;;;;15.70;6.80;;;;;;;19.88;64.06;101148.25;127146;1102;101493;-79
2023/08/14 05:58:32;;;;;;;15.97;6.60;;;;;;;19.98;63.89;101152.78;127414;1101;101947;-78
2023/08/14 06:01:04;;;;;;;15.20;6.97;;;;;;;20.08;63.57;101151.06;127377;1101;101497;-78
2023/08/14 06:03:35;;;;;;;13.10;6.60;;;;;;;20.18;63.43;101152.02;127116;1103;101150;-77
2023/08/14 06:06:10;;;;;;;18.10;6.40;;;;;;;20.28;64.31;101149.42;127240;1103;101562;-73
2023/08/14 06:08:42;;;;;;;19.87;6.97;;;;;;;20.39;63.91;101151.27;127219;1103;101080;-74
2023/08/14 06:11:17;;;;;;;12.37;6.13;;;;;;;20.47;63.88;101155.77;127119;1103;101939;-77
2023/08/14 06:13:51;;;;;;;17.10;6.50;;;;;;;20.59;63.41;101151.38;126251;1105;101600;-76
2023/08/14 06:16:26;;;;;;;13.50;6.17;;;;;;;20.70;62.29;101160.34;127418;1101;101122;-74
2023/08/14 06:18:57;;;;;;;14.60;6.50;;;;;;;20.79;62.75;101162.16;127136;1103;101679;-76
2023/08/14 06:21:30;;;;;;;14.80;6.80;;;;;;;20.90;62.23;101162.21;127407;1101;101228;-78
2023/08/14 06:24:08;;;;;;;16.80;6.27;;;;;;;21.01;62.43;101165.80;126317;1102;101938;-75
2023/08/14 06:26:40;;;;;;;14.07;6.33;;;;;;;21.10;62.12;101165.83;127419;1101;101144;-80
2023/08/14 06:29:14;;;;;;;13.20;6.30;;;;;;;21.21;61.58;101176.53;127431;1101;101599;-76
2023/08/14 06:31:45;;;;;;;13.53;6.27;;;;;;;21.31;62.16;101169.43;126341;1102;101645;-74
2023/08/14 06:34:17;;;;;;;14.77;6.37;;;;;;;21.40;61.98;101169.45;126339;1102;101318;-74
2023/08/14 06:36:52;;;;;;;15.73;5.77;;;;;;;21.50;60.93;101171.29;126345;1102;101965;-76
2023/08/14 06:39:23;;;;;;;14.50;6.20;;;;;;;21.62;61.10;101174.85;127161;1103;101304;-78
2023/08/14 06:41:57;;;;;;;16.63;6.33;;;;;;;21.74;61.54;101180.20;127399;1101;101178;-78
2023/08/14 06:44:30;;;;;;;14.03;5.87;;;;;;;21.89;60.60;101173.95;126284;1102;101402;-78
2023/08/14 06:47:02;;;;;;;15.70;6.20;;;;;;;22.04;60.61;101178.41;127417;1101;101075;-77
2023/08/14 06:49:34;;;;;;;18.83;6.03;;;;;;;22.19;60.76;101180.16;126345;1102;102152;-77
2023/08/14 06:52:09;;;;;;;16.97;6.17;;;;;;;22.35;59.85;101181.96;127388;1101;101242;-79
2023/08/14 06:54:41;;;;;;;15.57;5.77;;;;;;;22.53;59.52;101181.03;127287;1101;101218;-76
2023/08/14 06:57:12;;;;;;;15.60;5.90;;;;;;;22.69;59.88;101178.28;127427;1102;101583;-79
2023/08/14 06:59:44;;;;;;;16.93;6.30;;;;;;;22.84;58.88;101172.87;127411;1101;101565;-78
2023/08/14 07:02:19;;;;;;;16.03;6.50;;;;;;;23.07;58.88;101177.24;127436;1101;101991;-77
2023/08/14 07:04:53;;;;;;;13.57;6.30;;;;;;;23.26;58.83;101170.02;126346;1102;101321;-75
2023/08/14 07:07:25;;;;;;;13.03;5.90;;;;;;;23.47;58.50;101175.24;127399;1101;101207;-77
2023/08/14 07:10:00;;;;;;;13.40;5.70;;;;;;;23.69;58.10;101169.73;127380;1101;101224;-76
2023/08/14 07:12:37;;;;;;;16.50;6.57;;;;;;;23.86;57.67;101172.30;127470;1101;101189;-76
2023/08/14 07:15:11;;;;;;;12.77;5.57;;;;;;;23.99;57.78;101171.27;127358;1102;103156;-75
2023/08/14 07:17:46;;;;;;;13.93;5.77;;;;;;;24.17;56.92;101175.59;127412;1102;101311;-74
2023/08/14 07:20:26;;;;;;;15.15;5.37;;;;;;;24.46;56.51;101170.81;127444;1101;101233;-76
2023/08/14 07:23:13;;;;;;;14.50;5.97;;;;;;;24.83;55.92;101173.98;127367;1101;101235;-78
2023/08/14 07:25:48;;;;;;;14.50;5.40;;;;;;;25.09;55.11;101162.89;127021;1103;101318;-74
2023/08/14 07:28:22;;;;;;;15.10;5.40;;;;;;;25.31;55.38;101154.56;127112;1104;102025;-74
2023/08/14 07:30:55;;;;;;;14.07;5.57;;;;;;;25.49;54.70;101153.38;127067;1104;101463;-73
2023/08/14 07:33:37;;;;;;;11.10;5.10;;;;;;;25.72;54.13;101161.06;127070;1103;101202;-76
2023/08/14 07:36:11;;;;;;;11.68;5.35;;;;;;;25.96;52.02;101167.84;127043;1103;112011;-76
2023/08/14 07:39:01;;;;;;;11.60;4.80;;;;;;;26.18;52.09;101165.67;126331;1105;101225;-75
2023/08/14 07:41:58;;;;;;;8.47;4.33;;;;;;;26.35;52.14;101161.76;127125;1103;101942;-76
2023/08/14 07:44:57;;;;;;;10.73;4.70;;;;;;;26.49;51.59;101165.09;126706;1103;101528;-75
2023/08/14 07:47:35;;;;;;;10.87;4.30;;;;;;;26.56;51.30;101168.53;126360;1105;101256;-75
2023/08/14 07:50:11;;;;;;;14.77;5.20;;;;;;;26.68;51.15;101167.45;126334;1104;101126;-76
2023/08/14 07:52:43;;;;;;;13.93;4.47;;;;;;;26.84;50.49;101170.69;126384;1105;101247;-74
2023/08/14 07:55:17;;;;;;;10.30;4.40;;;;;;;26.90;49.51;101166.05;127052;1103;101862;-75
2023/08/14 07:58:04;;;;;;;12.93;4.87;;;;;;;27.07;49.29;101167.50;126271;1105;107496;-77
2023/08/14 08:01:09;;;;;;;14.17;5.30;;;;;;;27.18;49.09;101160.06;127394;1101;101506;-77
2023/08/14 08:03:46;;;;;;;11.60;4.73;;;;;;;27.46;49.25;101153.15;127466;1101;101302;-75
2023/08/14 08:06:20;;;;;;;10.03;5.00;;;;;;;27.58;47.83;101159.15;126387;1104;101607;-76
2023/08/14 08:09:11;;;;;;;14.90;5.27;;;;;;;27.71;48.06;101153.45;127102;1103;102263;-75
2023/08/14 08:11:47;;;;;;;14.47;5.23;;;;;;;27.91;47.70;101156.52;127061;1103;101262;-77
2023/08/14 08:14:29;;;;;;;15.50;5.20;;;;;;;28.09;46.82;101156.98;127118;1103;101193;-74
2023/08/14 08:17:16;;;;;;;12.83;5.30;;;;;;;28.18;46.27;101159.44;127088;1102;101195;-76
2023/08/14 08:20:09;;;;;;;;;;;;;;;;;;;;;
2023/08/14 08:22:52;;;;;;;21.23;4.70;;;;;;;28.67;44.16;101155.39;127416;1101;101931;-73
2023/08/14 08:25:31;;;;;;;16.33;4.77;;;;;;;28.72;44.06;101148.95;127373;1101;101518;-78
2023/08/14 08:28:04;;;;;;;8.17;4.43;;;;;;;28.71;43.40;101150.77;127128;1101;101559;-77
2023/08/14 08:30:38;;;;;;;9.25;4.30;;;;;;;28.81;43.90;101143.27;127137;1103;101600;-75
2023/08/14 08:33:11;;;;;;;15.87;4.67;;;;;;;28.97;43.02;101149.12;127100;1103;101223;-78
2023/08/14 08:35:46;;;;;;;7.17;3.70;;;;;;;29.10;41.94;101146.91;127098;1104;101962;-81
2023/08/14 08:38:21;;;;;;;8.30;3.63;;;;;;;29.24;40.60;101147.38;127189;1102;101421;-82
2023/08/14 08:40:54;;;;;;;6.73;3.60;;;;;;;29.38;40.70;101145.11;126388;1102;101181;-80
2023/08/14 08:43:27;;;;;;;;;;;;;;;29.47;41.47;101145.77;127606;1101;101067;-78
2023/08/14 08:46:12;;;;;;;7.67;3.73;;;;;;;29.35;40.55;101145.21;127404;1102;101256;-81
2023/08/14 08:48:54;;;;;;;10.00;4.07;;;;;;;29.32;40.02;101136.33;127109;1102;101915;-78
2023/08/14 08:51:30;;;;;;;9.17;4.00;;;;;;;29.53;39.61;101146.44;127170;1104;101275;-83
2023/08/14 08:54:04;;;;;;;10.13;4.10;;;;;;;29.60;39.41;101144.41;127247;1103;101613;-80
2023/08/14 08:56:38;;;;;;;9.00;4.17;;;;;;;29.78;39.18;101142.91;127205;1104;101182;-74
2023/08/14 08:59:20;;;;;;;8.50;4.13;;;;;;;29.95;38.96;101134.25;127352;1101;101222;-75
2023/08/14 09:01:59;;;;;;;6.93;4.00;;;;;;;30.01;39.37;101138.53;127425;1101;101944;-79
2023/08/14 09:05:05;;;;;;;7.47;3.90;;;;;;;30.06;38.69;101129.33;127400;1101;101432;-75
2023/08/14 09:07:41;;;;;;;;;;;;;;;30.07;39.18;101131.08;126905;1102;101385;-75
2023/08/14 09:10:19;;;;;;;10.77;4.30;;;;;;;29.96;38.05;101130.58;127148;1103;101597;-74
2023/08/14 09:13:01;;;;;;;8.97;4.10;;;;;;;29.77;38.26;101127.61;127097;1103;101045;-73
2023/08/14 09:15:42;;;;;;;10.65;4.95;;;;;;;29.60;37.61;101119.20;127089;1104;102010;-72
2023/08/14 09:18:23;;;;;;;7.13;4.13;;;;;;;29.49;37.85;101116.85;127080;1101;101561;-72
2023/08/14 09:20:58;;;;;;;13.90;4.75;;;;;;;29.58;37.35;101125.53;127393;1101;101141;-72
2023/08/14 09:23:31;;;;;;;6.15;3.80;;;;;;;29.62;37.43;101120.89;127445;1101;101249;-72
2023/08/14 09:26:05;;;;;;;;;;;;;;;29.75;38.00;101121.37;127648;1101;101074;-73
2023/08/14 09:28:38;;;;;;;6.53;3.50;;;;;;;29.90;36.59;101119.98;127205;1101;101976;-74
2023/08/14 09:31:16;;;;;;;9.23;4.00;;;;;;;30.06;36.55;101125.72;127047;1104;101600;-73
2023/08/14 09:34:01;;;;;;;;;;;;;;;;;;;;;
2023/08/14 09:36:38;;;;;;;8.73;3.77;;;;;;;30.27;35.54;101122.23;127102;1104;101577;-77
2023/08/14 09:39:13;;;;;;;9.40;3.50;;;;;;;30.16;35.53;101124.45;127216;1101;101410;-75
2023/08/14 09:41:52;;;;;;;8.57;3.53;;;;;;;30.18;35.43;101118.99;127428;1101;101928;-76
2023/08/14 09:44:28;;;;;;;8.50;4.00;;;;;;;30.26;35.27;101123.20;127425;1101;101283;-76
2023/08/14 09:47:05;;;;;;;6.90;3.60;;;;;;;30.41;34.93;101118.19;126381;1102;101144;-77
2023/08/14 09:49:40;;;;;;;6.03;3.60;;;;;;;30.51;34.82;101124.13;127089;1102;102053;-75
2023/08/14 09:52:13;;;;;;;6.37;3.57;;;;;;;30.60;34.38;101115.66;127112;1103;101062;-76
2023/08/14 09:54:44;;;;;;;9.03;3.60;;;;;;;30.64;34.20;101112.77;127091;1103;101923;-76
2023/08/14 09:57:17;;;;;;;5.50;3.37;;;;;;;30.58;33.88;101117.55;127053;1104;101290;-79
2023/08/14 09:59:49;;;;;;;6.47;3.58;;;;;;;30.54;34.02;101111.37;127206;1101;101450;-73
2023/08/14 10:02:27;;;;;;;9.97;3.50;;;;;;;30.58;33.45;101112.13;127430;1101;101230;-78
2023/08/14 10:05:09;;;;;;;6.37;3.10;;;;;;;30.65;33.59;101105.52;127420;1101;101229;-78
2023/08/14 10:07:43;;;;;;;7.80;4.00;;;;;;;30.65;33.08;101111.84;127374;1101;102703;-79
2023/08/14 10:10:16;;;;;;;7.50;3.80;;;;;;;30.70;32.77;101117.08;126976;1102;101503;-74
2023/08/14 10:12:51;;;;;;;6.85;3.65;;;;;;;30.77;32.41;101115.88;127100;1103;101118;-75
2023/08/14 10:15:28;;;;;;;8.33;3.70;;;;;;;30.68;32.20;101109.94;127082;1103;101093;-80
2023/08/14 10:18:02;;;;;;;6.20;3.40;;;;;;;30.69;32.37;101111.72;127112;1104;101573;-75
2023/08/14 10:20:36;;;;;;;6.57;3.70;;;;;;;30.77;32.18;101107.75;127259;1101;101980;-76
2023/08/14 10:23:09;;;;;;;5.87;3.13;;;;;;;30.84;32.06;101103.00;126361;1102;101667;-75
2023/08/14 10:25:40;;;;;;;;;;;;;;;30.80;32.10;101113.05;127615;1101;101264;-76
2023/08/14 10:28:11;;;;;;;6.10;3.10;;;;;;;30.70;31.78;101117.08;127472;1101;101594;-73
2023/08/14 10:30:45;;;;;;;6.20;3.17;;;;;;;30.62;31.52;101114.66;127037;1102;101308;-78
2023/08/14 10:33:18;;;;;;;8.00;3.40;;;;;;;30.60;31.27;101115.66;127154;1103;102011;-78
2023/08/14 10:35:55;;;;;;;7.10;3.20;;;;;;;30.56;31.22;101108.58;127104;1104;101361;-76
2023/08/14 10:38:41;;;;;;;6.53;3.40;;;;;;;30.53;31.11;101114.14;126347;1105;101680;-77
2023/08/14 10:41:15;;;;;;;7.63;3.20;;;;;;;30.54;31.02;101110.47;127316;1101;111909;-78
2023/08/14 10:43:51;;;;;;;8.20;3.60;;;;;;;30.51;30.81;101103.37;126399;1102;101382;-81
2023/08/14 10:46:24;;;;;;;8.20;3.37;;;;;;;30.58;30.83;101099.47;127440;1101;102081;-79
2023/08/14 10:48:56;;;;;;;7.93;3.50;;;;;;;30.76;30.57;101100.59;127388;1102;101274;-77
2023/08/14 10:51:34;;;;;;;10.30;3.73;;;;;;;30.88;30.56;101095.62;127323;1102;101294;-81
2023/08/14 10:54:31;;;;;;;;;;;;;;;;;;;;;
2023/08/14 10:57:12;;;;;;;8.47;3.50;;;;;;;30.94;30.63;101087.25;127433;1101;101047;-82
2023/08/14 10:59:57;;;;;;;7.93;4.03;;;;;;;30.92;30.15;101089.15;126313;1105;103789;-81
2023/08/14 11:02:42;;;;;;;6.83;3.30;;;;;;;30.87;29.38;101091.13;127366;1101;101480;-81
2023/08/14 11:05:17;;;;;;;6.77;3.27;;;;;;;30.85;28.94;101079.48;127483;1101;101111;-81
2023/08/14 11:08:02;;;;;;;6.23;3.10;;;;;;;30.91;29.02;101077.41;127441;1101;101178;-77
2023/08/14 11:10:35;;;;;;;4.57;3.13;;;;;;;30.98;28.80;101078.97;127265;1101;101249;-77
2023/08/14 11:13:08;;;;;;;9.43;3.50;;;;;;;30.96;28.94;101079.93;127438;1101;101986;-76
2023/08/14 11:15:43;;;;;;;8.17;3.33;;;;;;;31.05;29.04;101073.30;127383;1101;101284;-76
2023/08/14 11:18:15;;;;;;;6.47;3.27;;;;;;;31.07;29.04;101065.98;127412;1101;101141;-78
2023/08/14 11:20:52;;;;;;;5.93;3.27;;;;;;;31.09;28.85;101070.40;127252;1101;101167;-77
2023/08/14 11:23:27;;;;;;;3.60;3.10;;;;;;;31.10;28.82;101072.14;127128;1104;101060;-79
2023/08/14 11:26:10;;;;;;;6.10;3.27;;;;;;;31.13;28.97;101071.14;126404;1102;101912;-79
2023/08/14 11:28:46;;;;;;;6.53;3.27;;;;;;;31.21;28.48;101063.57;127432;1101;101463;-77
2023/08/14 11:31:17;;;;;;;6.53;3.10;;;;;;;31.18;28.40;101070.02;126384;1102;101677;-76
2023/08/14 11:34:10;;;;;;;8.30;3.40;;;;;;;31.19;28.46;101066.34;127423;1101;101102;-78
2023/08/14 11:36:53;;;;;;;4.57;3.07;;;;;;;31.25;28.14;101059.80;127428;1101;101042;-77
2023/08/14 12:30:25;;;;;;;6.30;3.10;;;;;;;30.77;27.20;101021.06;126576;1101;101609;-79
2023/08/14 12:33:02;;;;;;;4.60;2.90;;;;;;;30.78;26.53;101030.97;126059;1101;102385;-81
2023/08/14 12:35:35;;;;;;;7.90;3.00;;;;;;;30.76;26.81;101027.45;125986;1105;102162;-78